createdAt,value
2023-01-18T06:58:25.092Z,1.44
2023-01-18T06:59:36.866Z,1.46
2023-01-18T07:00:44.106Z,1.46
2023-01-18T07:01:55.249Z,1.47
2023-01-18T07:03:02.572Z,1.49
2023-01-18T07:04:20.429Z,1.59
2023-01-18T07:05:29.064Z,1.64
2023-01-18T07:06:42.375Z,1.61
2023-01-18T19:47:13.072Z,1.53
2023-01-18T19:48:23.269Z,1.50
2023-01-18T19:49:34.936Z,1.55
2023-01-18T19:50:48.030Z,1.58
2023-01-18T19:52:02.444Z,1.49
2023-01-18T19:53:07.919Z,1.58
2023-01-18T19:54:14.558Z,1.58
2023-01-18T19:55:20.596Z,1.59
2023-01-18T19:56:29.817Z,1.60
2023-01-18T19:57:36.884Z,1.58
2023-01-18T19:58:42.764Z,1.63
2023-01-18T19:59:53.508Z,1.61
2023-01-18T20:01:01.567Z,1.68
2023-01-18T20:02:06.959Z,1.67
2023-01-18T20:03:14.080Z,1.70
2023-01-18T20:04:18.577Z,1.67
2023-01-18T20:05:31.472Z,1.75
2023-01-18T20:08:36.772Z,1.74
2023-01-18T20:09:52.139Z,1.74
2023-01-18T20:11:24.935Z,1.63
2023-01-18T20:17:29.691Z,1.69
2023-01-18T20:18:39.046Z,1.70
2023-01-18T20:21:36.146Z,1.77
2023-01-18T20:22:41.957Z,1.75
2023-01-18T20:23:50.995Z,1.66
2023-01-18T20:24:59.739Z,1.72
2023-01-18T20:26:12.707Z,1.81
2023-01-18T20:27:23.798Z,1.84
2023-01-18T20:28:36.947Z,1.78
2023-01-18T20:29:46.127Z,1.83
2023-01-18T20:30:55.592Z,1.82
2023-01-18T20:32:14.121Z,1.86
2023-01-18T20:33:19.378Z,1.87
2023-01-18T20:34:22.310Z,1.87
2023-01-18T20:36:13.718Z,1.85
2023-01-18T20:42:07.278Z,1.85
2023-01-18T20:43:13.677Z,1.91
2023-01-18T20:44:25.015Z,1.96
2023-01-18T20:45:37.717Z,1.92
2023-01-18T20:46:44.524Z,1.85
2023-01-18T20:47:53.109Z,1.87
2023-01-18T21:48:54.839Z,1.86
2023-01-18T21:50:26.854Z,1.85
2023-01-18T21:51:51.163Z,1.83
